sensor_id;sensor_type;location;lat;lon;timestamp;P1;durP1;ratioP1;P2;durP2;ratioP2
47455;SDS011;33202;48.512;-2.780;2023-06-10T00:00:48;16.73;;;12.07;;
47455;SDS011;33202;48.512;-2.780;2023-06-10T00:03:15;17.00;;;13.02;;
47455;SDS011;33202;48.512;-2.780;2023-06-10T00:05:42;19.15;;;14.20;;
47455;SDS011;33202;48.512;-2.780;2023-06-10T00:08:08;16.58;;;13.07;;
47455;SDS011;33202;48.512;-2.780;2023-06-10T00:10:36;16.70;;;13.25;;
47455;SDS011;33202;48.512;-2.780;2023-06-10T00:13:03;17.77;;;13.30;;
47455;SDS011;33202;48.512;-2.780;2023-06-10T00:15:29;18.23;;;13.90;;
47455;SDS011;33202;48.512;-2.780;2023-06-10T00:17:55;17.27;;;14.35;;
47455;SDS011;33202;48.512;-2.780;2023-06-10T00:20:22;17.87;;;13.53;;
47455;SDS011;33202;48.512;-2.780;2023-06-10T00:22:51;23.23;;;15.20;;
47455;SDS011;33202;48.512;-2.780;2023-06-10T00:25:17;17.70;;;13.70;;
47455;SDS011;33202;48.512;-2.780;2023-06-10T00:27:43;20.15;;;15.15;;
47455;SDS011;33202;48.512;-2.780;2023-06-10T00:30:10;20.70;;;14.48;;
47455;SDS011;33202;48.512;-2.780;2023-06-10T00:32:36;22.20;;;15.00;;
47455;SDS011;33202;48.512;-2.780;2023-06-10T00:35:03;19.35;;;14.55;;
47455;SDS011;33202;48.512;-2.780;2023-06-10T00:37:29;17.95;;;14.68;;
47455;SDS011;33202;48.512;-2.780;2023-06-10T00:39:55;22.08;;;15.30;;
47455;SDS011;33202;48.512;-2.780;2023-06-10T00:42:22;22.20;;;15.82;;
47455;SDS011;33202;48.512;-2.780;2023-06-10T00:47:15;20.33;;;15.13;;
47455;SDS011;33202;48.512;-2.780;2023-06-10T00:49:41;22.60;;;15.00;;
47455;SDS011;33202;48.512;-2.780;2023-06-10T00:52:07;20.70;;;14.20;;
47455;SDS011;33202;48.512;-2.780;2023-06-10T00:54:35;19.42;;;15.20;;
47455;SDS011;33202;48.512;-2.780;2023-06-10T00:57:01;19.85;;;14.68;;
47455;SDS011;33202;48.512;-2.780;2023-06-10T00:59:28;18.63;;;15.05;;
47455;SDS011;33202;48.512;-2.780;2023-06-10T01:01:55;19.58;;;15.05;;
47455;SDS011;33202;48.512;-2.780;2023-06-10T01:04:22;21.23;;;15.50;;
47455;SDS011;33202;48.512;-2.780;2023-06-10T01:09:38;19.35;;;14.18;;
47455;SDS011;33202;48.512;-2.780;2023-06-10T01:12:02;18.15;;;14.13;;
47455;SDS011;33202;48.512;-2.780;2023-06-10T01:14:34;17.80;;;13.85;;
47455;SDS011;33202;48.512;-2.780;2023-06-10T01:17:00;18.70;;;15.55;;
47455;SDS011;33202;48.512;-2.780;2023-06-10T01:19:28;19.02;;;14.65;;
47455;SDS011;33202;48.512;-2.780;2023-06-10T01:21:56;18.70;;;14.63;;
47455;SDS011;33202;48.512;-2.780;2023-06-10T01:24:26;20.23;;;15.50;;
47455;SDS011;33202;48.512;-2.780;2023-06-10T01:26:53;23.63;;;15.95;;
47455;SDS011;33202;48.512;-2.780;2023-06-10T01:29:41;22.17;;;15.32;;
47455;SDS011;33202;48.512;-2.780;2023-06-10T01:32:17;17.92;;;14.57;;
47455;SDS011;33202;48.512;-2.780;2023-06-10T01:34:44;18.50;;;15.13;;
47455;SDS011;33202;48.512;-2.780;2023-06-10T01:37:12;21.05;;;15.93;;
47455;SDS011;33202;48.512;-2.780;2023-06-10T01:39:39;19.13;;;15.35;;
47455;SDS011;33202;48.512;-2.780;2023-06-10T01:42:06;25.30;;;16.52;;
47455;SDS011;33202;48.512;-2.780;2023-06-10T01:44:32;23.30;;;16.00;;
47455;SDS011;33202;48.512;-2.780;2023-06-10T01:46:58;25.17;;;16.42;;
47455;SDS011;33202;48.512;-2.780;2023-06-10T01:49:24;19.83;;;15.32;;
47455;SDS011;33202;48.512;-2.780;2023-06-10T01:51:51;22.35;;;15.73;;
47455;SDS011;33202;48.512;-2.780;2023-06-10T01:54:17;19.35;;;15.07;;
47455;SDS011;33202;48.512;-2.780;2023-06-10T01:56:43;21.15;;;15.38;;
47455;SDS011;33202;48.512;-2.780;2023-06-10T01:59:09;19.02;;;15.18;;
47455;SDS011;33202;48.512;-2.780;2023-06-10T02:01:35;21.30;;;16.90;;
47455;SDS011;33202;48.512;-2.780;2023-06-10T02:04:01;19.83;;;15.27;;
47455;SDS011;33202;48.512;-2.780;2023-06-10T02:06:27;20.25;;;15.88;;
47455;SDS011;33202;48.512;-2.780;2023-06-10T02:08:53;20.98;;;15.27;;
47455;SDS011;33202;48.512;-2.780;2023-06-10T02:11:19;19.55;;;15.45;;
47455;SDS011;33202;48.512;-2.780;2023-06-10T02:13:45;20.85;;;15.15;;
47455;SDS011;33202;48.512;-2.780;2023-06-10T02:16:11;23.20;;;15.07;;
47455;SDS011;33202;48.512;-2.780;2023-06-10T02:18:39;20.42;;;13.85;;
47455;SDS011;33202;48.512;-2.780;2023-06-10T02:21:07;18.67;;;15.02;;
47455;SDS011;33202;48.512;-2.780;2023-06-10T02:23:33;17.42;;;14.55;;
47455;SDS011;33202;48.512;-2.780;2023-06-10T02:26:00;16.42;;;13.38;;
47455;SDS011;33202;48.512;-2.780;2023-06-10T02:30:53;16.45;;;13.32;;
47455;SDS011;33202;48.512;-2.780;2023-06-10T02:33:19;18.90;;;12.95;;
47455;SDS011;33202;48.512;-2.780;2023-06-10T02:35:45;17.02;;;13.55;;
47455;SDS011;33202;48.512;-2.780;2023-06-10T02:38:11;15.85;;;11.93;;
47455;SDS011;33202;48.512;-2.780;2023-06-10T02:40:37;15.15;;;11.95;;
47455;SDS011;33202;48.512;-2.780;2023-06-10T02:43:03;14.40;;;11.60;;
47455;SDS011;33202;48.512;-2.780;2023-06-10T02:45:29;13.27;;;11.13;;
47455;SDS011;33202;48.512;-2.780;2023-06-10T02:47:55;14.32;;;11.00;;
47455;SDS011;33202;48.512;-2.780;2023-06-10T02:50:21;13.85;;;10.52;;
47455;SDS011;33202;48.512;-2.780;2023-06-10T02:52:47;13.57;;;11.13;;
47455;SDS011;33202;48.512;-2.780;2023-06-10T02:55:14;13.98;;;11.32;;
47455;SDS011;33202;48.512;-2.780;2023-06-10T02:57:40;17.53;;;11.10;;
47455;SDS011;33202;48.512;-2.780;2023-06-10T03:00:06;11.10;;;9.80;;
47455;SDS011;33202;48.512;-2.780;2023-06-10T03:02:35;12.27;;;10.25;;
47455;SDS011;33202;48.512;-2.780;2023-06-10T03:05:02;14.98;;;10.48;;
47455;SDS011;33202;48.512;-2.780;2023-06-10T03:07:28;16.17;;;10.27;;
47455;SDS011;33202;48.512;-2.780;2023-06-10T03:09:55;14.60;;;9.88;;
47455;SDS011;33202;48.512;-2.780;2023-06-10T03:12:21;16.35;;;10.60;;
47455;SDS011;33202;48.512;-2.780;2023-06-10T03:14:47;13.43;;;10.20;;
47455;SDS011;33202;48.512;-2.780;2023-06-10T03:17:13;12.93;;;9.70;;
47455;SDS011;33202;48.512;-2.780;2023-06-10T03:19:39;12.60;;;10.55;;
47455;SDS011;33202;48.512;-2.780;2023-06-10T03:22:09;14.05;;;10.00;;
47455;SDS011;33202;48.512;-2.780;2023-06-10T03:24:35;13.13;;;9.57;;
47455;SDS011;33202;48.512;-2.780;2023-06-10T03:27:01;14.02;;;9.63;;
47455;SDS011;33202;48.512;-2.780;2023-06-10T03:29:29;12.20;;;9.00;;
47455;SDS011;33202;48.512;-2.780;2023-06-10T03:31:55;12.95;;;9.73;;
47455;SDS011;33202;48.512;-2.780;2023-06-10T03:34:22;13.85;;;9.10;;
47455;SDS011;33202;48.512;-2.780;2023-06-10T03:36:48;11.30;;;8.38;;
47455;SDS011;33202;48.512;-2.780;2023-06-10T03:39:14;13.10;;;9.35;;
47455;SDS011;33202;48.512;-2.780;2023-06-10T03:41:40;13.88;;;8.73;;
47455;SDS011;33202;48.512;-2.780;2023-06-10T03:44:06;12.40;;;8.73;;
47455;SDS011;33202;48.512;-2.780;2023-06-10T03:46:32;13.07;;;8.75;;
47455;SDS011;33202;48.512;-2.780;2023-06-10T03:48:58;10.10;;;8.90;;
47455;SDS011;33202;48.512;-2.780;2023-06-10T03:51:29;13.45;;;8.82;;
47455;SDS011;33202;48.512;-2.780;2023-06-10T03:53:55;14.52;;;8.60;;
47455;SDS011;33202;48.512;-2.780;2023-06-10T03:56:21;12.50;;;8.85;;
47455;SDS011;33202;48.512;-2.780;2023-06-10T03:58:47;11.30;;;8.77;;
47455;SDS011;33202;48.512;-2.780;2023-06-10T04:01:13;8.85;;;7.93;;
47455;SDS011;33202;48.512;-2.780;2023-06-10T04:03:39;10.88;;;8.43;;
47455;SDS011;33202;48.512;-2.780;2023-06-10T04:06:06;13.15;;;7.85;;
47455;SDS011;33202;48.512;-2.780;2023-06-10T04:08:32;8.73;;;7.40;;
47455;SDS011;33202;48.512;-2.780;2023-06-10T04:10:58;11.43;;;7.88;;
47455;SDS011;33202;48.512;-2.780;2023-06-10T04:13:24;9.65;;;7.15;;
47455;SDS011;33202;48.512;-2.780;2023-06-10T04:15:51;9.63;;;7.57;;
47455;SDS011;33202;48.512;-2.780;2023-06-10T04:18:17;9.68;;;7.07;;
47455;SDS011;33202;48.512;-2.780;2023-06-10T04:20:43;8.60;;;7.20;;
47455;SDS011;33202;48.512;-2.780;2023-06-10T04:23:10;9.32;;;6.90;;
47455;SDS011;33202;48.512;-2.780;2023-06-10T04:25:35;8.48;;;7.38;;
47455;SDS011;33202;48.512;-2.780;2023-06-10T04:28:02;8.88;;;7.10;;
47455;SDS011;33202;48.512;-2.780;2023-06-10T04:30:28;10.65;;;8.07;;
47455;SDS011;33202;48.512;-2.780;2023-06-10T04:32:54;10.05;;;7.72;;
47455;SDS011;33202;48.512;-2.780;2023-06-10T04:35:20;11.35;;;7.68;;
47455;SDS011;33202;48.512;-2.780;2023-06-10T04:37:46;9.48;;;7.68;;
47455;SDS011;33202;48.512;-2.780;2023-06-10T04:40:12;8.95;;;7.10;;
47455;SDS011;33202;48.512;-2.780;2023-06-10T04:42:38;11.02;;;7.82;;
47455;SDS011;33202;48.512;-2.780;2023-06-10T04:45:05;10.60;;;8.20;;
47455;SDS011;33202;48.512;-2.780;2023-06-10T04:47:31;9.27;;;7.47;;
47455;SDS011;33202;48.512;-2.780;2023-06-10T04:50:00;9.27;;;7.88;;
47455;SDS011;33202;48.512;-2.780;2023-06-10T04:52:27;8.80;;;7.70;;
47455;SDS011;33202;48.512;-2.780;2023-06-10T04:54:53;13.25;;;7.88;;
47455;SDS011;33202;48.512;-2.780;2023-06-10T04:57:19;11.73;;;8.20;;
47455;SDS011;33202;48.512;-2.780;2023-06-10T04:59:45;12.20;;;8.18;;
47455;SDS011;33202;48.512;-2.780;2023-06-10T05:02:11;10.63;;;7.57;;
47455;SDS011;33202;48.512;-2.780;2023-06-10T05:04:37;10.40;;;9.00;;
47455;SDS011;33202;48.512;-2.780;2023-06-10T05:07:04;12.30;;;8.30;;
47455;SDS011;33202;48.512;-2.780;2023-06-10T05:09:30;13.00;;;10.17;;
47455;SDS011;33202;48.512;-2.780;2023-06-10T05:11:56;14.07;;;10.50;;
47455;SDS011;33202;48.512;-2.780;2023-06-10T05:14:22;11.13;;;9.68;;
47455;SDS011;33202;48.512;-2.780;2023-06-10T05:16:48;13.00;;;9.70;;
47455;SDS011;33202;48.512;-2.780;2023-06-10T05:19:14;13.07;;;9.93;;
47455;SDS011;33202;48.512;-2.780;2023-06-10T05:21:44;15.02;;;10.65;;
47455;SDS011;33202;48.512;-2.780;2023-06-10T05:24:10;12.68;;;10.10;;
47455;SDS011;33202;48.512;-2.780;2023-06-10T05:26:36;15.43;;;11.05;;
47455;SDS011;33202;48.512;-2.780;2023-06-10T05:29:03;13.95;;;10.60;;
47455;SDS011;33202;48.512;-2.780;2023-06-10T05:31:29;11.15;;;9.90;;
47455;SDS011;33202;48.512;-2.780;2023-06-10T05:33:55;12.65;;;10.13;;
47455;SDS011;33202;48.512;-2.780;2023-06-10T05:36:21;10.60;;;9.32;;
47455;SDS011;33202;48.512;-2.780;2023-06-10T05:38:50;11.48;;;9.18;;
47455;SDS011;33202;48.512;-2.780;2023-06-10T05:41:16;12.45;;;10.15;;
47455;SDS011;33202;48.512;-2.780;2023-06-10T05:43:42;12.00;;;9.98;;
47455;SDS011;33202;48.512;-2.780;2023-06-10T05:46:08;12.82;;;9.70;;
47455;SDS011;33202;48.512;-2.780;2023-06-10T05:48:34;13.50;;;10.40;;
47455;SDS011;33202;48.512;-2.780;2023-06-10T05:51:00;14.63;;;10.75;;
47455;SDS011;33202;48.512;-2.780;2023-06-10T05:53:26;15.02;;;10.35;;
47455;SDS011;33202;48.512;-2.780;2023-06-10T05:55:52;16.05;;;11.88;;
47455;SDS011;33202;48.512;-2.780;2023-06-10T05:58:22;14.27;;;11.77;;
47455;SDS011;33202;48.512;-2.780;2023-06-10T06:00:48;16.73;;;13.25;;
47455;SDS011;33202;48.512;-2.780;2023-06-10T06:03:14;17.23;;;12.68;;
47455;SDS011;33202;48.512;-2.780;2023-06-10T06:05:40;17.80;;;12.02;;
47455;SDS011;33202;48.512;-2.780;2023-06-10T06:08:09;17.25;;;13.27;;
47455;SDS011;33202;48.512;-2.780;2023-06-10T06:10:35;18.00;;;13.68;;
47455;SDS011;33202;48.512;-2.780;2023-06-10T06:13:02;14.83;;;12.20;;
47455;SDS011;33202;48.512;-2.780;2023-06-10T06:15:28;14.23;;;12.30;;
47455;SDS011;33202;48.512;-2.780;2023-06-10T06:17:54;16.23;;;12.07;;
47455;SDS011;33202;48.512;-2.780;2023-06-10T06:20:21;15.60;;;11.43;;
47455;SDS011;33202;48.512;-2.780;2023-06-10T06:22:47;15.23;;;12.18;;
47455;SDS011;33202;48.512;-2.780;2023-06-10T06:25:13;15.50;;;10.68;;
47455;SDS011;33202;48.512;-2.780;2023-06-10T06:27:40;15.48;;;11.27;;
47455;SDS011;33202;48.512;-2.780;2023-06-10T06:30:06;15.10;;;12.63;;
47455;SDS011;33202;48.512;-2.780;2023-06-10T06:32:32;15.90;;;11.68;;
47455;SDS011;33202;48.512;-2.780;2023-06-10T06:34:58;12.88;;;11.20;;
47455;SDS011;33202;48.512;-2.780;2023-06-10T06:37:25;13.98;;;10.52;;
47455;SDS011;33202;48.512;-2.780;2023-06-10T06:39:51;15.27;;;10.90;;
47455;SDS011;33202;48.512;-2.780;2023-06-10T06:42:18;11.43;;;9.75;;
47455;SDS011;33202;48.512;-2.780;2023-06-10T06:44:44;15.05;;;10.48;;
47455;SDS011;33202;48.512;-2.780;2023-06-10T06:47:10;11.65;;;9.50;;
47455;SDS011;33202;48.512;-2.780;2023-06-10T06:49:37;12.00;;;9.98;;
47455;SDS011;33202;48.512;-2.780;2023-06-10T06:52:03;12.43;;;10.53;;
47455;SDS011;33202;48.512;-2.780;2023-06-10T06:54:29;13.82;;;11.05;;
47455;SDS011;33202;48.512;-2.780;2023-06-10T06:56:55;13.00;;;9.93;;
47455;SDS011;33202;48.512;-2.780;2023-06-10T06:59:21;13.82;;;9.93;;
47455;SDS011;33202;48.512;-2.780;2023-06-10T07:01:47;14.57;;;10.67;;
47455;SDS011;33202;48.512;-2.780;2023-06-10T07:04:14;14.02;;;9.82;;
47455;SDS011;33202;48.512;-2.780;2023-06-10T07:06:40;12.95;;;9.77;;
47455;SDS011;33202;48.512;-2.780;2023-06-10T07:09:07;14.20;;;9.80;;
47455;SDS011;33202;48.512;-2.780;2023-06-10T07:11:36;11.05;;;9.23;;
47455;SDS011;33202;48.512;-2.780;2023-06-10T07:14:02;12.90;;;9.52;;
47455;SDS011;33202;48.512;-2.780;2023-06-10T07:16:28;15.63;;;10.77;;
47455;SDS011;33202;48.512;-2.780;2023-06-10T07:18:54;14.55;;;9.52;;
47455;SDS011;33202;48.512;-2.780;2023-06-10T07:21:20;14.35;;;9.75;;
47455;SDS011;33202;48.512;-2.780;2023-06-10T07:23:48;12.32;;;9.52;;
47455;SDS011;33202;48.512;-2.780;2023-06-10T07:26:14;12.98;;;10.25;;
47455;SDS011;33202;48.512;-2.780;2023-06-10T07:28:40;14.88;;;10.45;;
47455;SDS011;33202;48.512;-2.780;2023-06-10T07:31:06;12.83;;;10.67;;
47455;SDS011;33202;48.512;-2.780;2023-06-10T07:33:33;12.50;;;10.33;;
47455;SDS011;33202;48.512;-2.780;2023-06-10T07:35:59;14.57;;;11.15;;
47455;SDS011;33202;48.512;-2.780;2023-06-10T07:38:25;15.18;;;10.77;;
47455;SDS011;33202;48.512;-2.780;2023-06-10T07:40:51;13.40;;;10.20;;
47455;SDS011;33202;48.512;-2.780;2023-06-10T07:43:17;14.77;;;10.45;;
47455;SDS011;33202;48.512;-2.780;2023-06-10T07:45:43;20.02;;;10.25;;
47455;SDS011;33202;48.512;-2.780;2023-06-10T07:48:09;25.70;;;11.53;;
47455;SDS011;33202;48.512;-2.780;2023-06-10T07:50:35;14.45;;;9.95;;
47455;SDS011;33202;48.512;-2.780;2023-06-10T07:53:01;11.18;;;9.55;;
47455;SDS011;33202;48.512;-2.780;2023-06-10T07:55:28;16.03;;;10.90;;
47455;SDS011;33202;48.512;-2.780;2023-06-10T07:57:54;13.88;;;10.02;;
47455;SDS011;33202;48.512;-2.780;2023-06-10T08:00:20;16.50;;;11.02;;
47455;SDS011;33202;48.512;-2.780;2023-06-10T08:02:46;13.50;;;10.32;;
47455;SDS011;33202;48.512;-2.780;2023-06-10T08:05:12;15.33;;;10.73;;
47455;SDS011;33202;48.512;-2.780;2023-06-10T08:07:41;14.48;;;10.35;;
47455;SDS011;33202;48.512;-2.780;2023-06-10T08:10:08;29.42;;;12.82;;
47455;SDS011;33202;48.512;-2.780;2023-06-10T08:12:34;13.68;;;10.70;;
47455;SDS011;33202;48.512;-2.780;2023-06-10T08:15:00;13.43;;;10.63;;
47455;SDS011;33202;48.512;-2.780;2023-06-10T08:19:53;14.68;;;10.73;;
47455;SDS011;33202;48.512;-2.780;2023-06-10T08:22:19;11.65;;;10.07;;
47455;SDS011;33202;48.512;-2.780;2023-06-10T08:24:45;14.30;;;10.02;;
47455;SDS011;33202;48.512;-2.780;2023-06-10T08:27:11;11.45;;;9.48;;
47455;SDS011;33202;48.512;-2.780;2023-06-10T08:29:37;11.15;;;9.48;;
47455;SDS011;33202;48.512;-2.780;2023-06-10T08:32:03;14.70;;;9.60;;
47455;SDS011;33202;48.512;-2.780;2023-06-10T08:34:29;9.90;;;8.77;;
47455;SDS011;33202;48.512;-2.780;2023-06-10T08:36:55;11.25;;;8.57;;
47455;SDS011;33202;48.512;-2.780;2023-06-10T08:39:22;11.88;;;8.73;;
47455;SDS011;33202;48.512;-2.780;2023-06-10T08:41:51;12.23;;;9.32;;
47455;SDS011;33202;48.512;-2.780;2023-06-10T08:44:22;15.70;;;10.20;;
47455;SDS011;33202;48.512;-2.780;2023-06-10T08:46:52;15.38;;;9.77;;
47455;SDS011;33202;48.512;-2.780;2023-06-10T08:49:18;28.02;;;12.38;;
47455;SDS011;33202;48.512;-2.780;2023-06-10T08:54:21;15.90;;;10.23;;
47455;SDS011;33202;48.512;-2.780;2023-06-10T08:56:50;12.30;;;9.98;;
47455;SDS011;33202;48.512;-2.780;2023-06-10T08:59:17;12.43;;;9.47;;
47455;SDS011;33202;48.512;-2.780;2023-06-10T09:01:43;12.75;;;9.15;;
47455;SDS011;33202;48.512;-2.780;2023-06-10T09:04:10;11.63;;;8.98;;
47455;SDS011;33202;48.512;-2.780;2023-06-10T09:06:36;13.70;;;9.57;;
47455;SDS011;33202;48.512;-2.780;2023-06-10T09:09:03;12.60;;;9.00;;
47455;SDS011;33202;48.512;-2.780;2023-06-10T09:11:31;12.15;;;9.32;;
47455;SDS011;33202;48.512;-2.780;2023-06-10T09:13:57;11.07;;;9.35;;
47455;SDS011;33202;48.512;-2.780;2023-06-10T09:16:24;12.23;;;8.52;;
47455;SDS011;33202;48.512;-2.780;2023-06-10T09:18:50;10.57;;;8.48;;
47455;SDS011;33202;48.512;-2.780;2023-06-10T09:21:21;11.60;;;8.93;;
47455;SDS011;33202;48.512;-2.780;2023-06-10T09:23:47;11.80;;;7.85;;
47455;SDS011;33202;48.512;-2.780;2023-06-10T09:26:13;11.20;;;8.88;;
47455;SDS011;33202;48.512;-2.780;2023-06-10T09:28:41;10.33;;;8.70;;
47455;SDS011;33202;48.512;-2.780;2023-06-10T09:31:07;9.52;;;8.43;;
47455;SDS011;33202;48.512;-2.780;2023-06-10T09:33:36;10.80;;;8.60;;
47455;SDS011;33202;48.512;-2.780;2023-06-10T09:36:03;12.18;;;8.70;;
47455;SDS011;33202;48.512;-2.780;2023-06-10T09:38:30;11.00;;;8.60;;
47455;SDS011;33202;48.512;-2.780;2023-06-10T09:40:56;10.68;;;7.90;;
47455;SDS011;33202;48.512;-2.780;2023-06-10T09:43:22;12.25;;;8.38;;
47455;SDS011;33202;48.512;-2.780;2023-06-10T09:45:49;9.68;;;8.40;;
47455;SDS011;33202;48.512;-2.780;2023-06-10T09:48:18;10.00;;;8.27;;
47455;SDS011;33202;48.512;-2.780;2023-06-10T09:50:44;47.47;;;11.15;;
47455;SDS011;33202;48.512;-2.780;2023-06-10T09:53:11;50.28;;;13.30;;
47455;SDS011;33202;48.512;-2.780;2023-06-10T09:55:39;27.57;;;9.13;;
47455;SDS011;33202;48.512;-2.780;2023-06-10T09:58:06;15.52;;;8.38;;
47455;SDS011;33202;48.512;-2.780;2023-06-10T10:00:33;12.63;;;8.05;;
47455;SDS011;33202;48.512;-2.780;2023-06-10T10:02:59;11.32;;;7.97;;
47455;SDS011;33202;48.512;-2.780;2023-06-10T10:05:26;10.57;;;8.38;;
47455;SDS011;33202;48.512;-2.780;2023-06-10T10:07:52;12.25;;;9.05;;
47455;SDS011;33202;48.512;-2.780;2023-06-10T10:10:21;9.48;;;8.23;;
47455;SDS011;33202;48.512;-2.780;2023-06-10T10:12:47;10.77;;;7.75;;
47455;SDS011;33202;48.512;-2.780;2023-06-10T10:15:14;9.57;;;7.93;;
47455;SDS011;33202;48.512;-2.780;2023-06-10T10:17:46;8.80;;;7.38;;
47455;SDS011;33202;48.512;-2.780;2023-06-10T10:20:16;9.68;;;7.68;;
47455;SDS011;33202;48.512;-2.780;2023-06-10T10:22:43;12.68;;;8.82;;
47455;SDS011;33202;48.512;-2.780;2023-06-10T10:25:13;20.40;;;12.27;;
47455;SDS011;33202;48.512;-2.780;2023-06-10T10:27:47;19.88;;;13.55;;
47455;SDS011;33202;48.512;-2.780;2023-06-10T10:30:14;20.95;;;13.82;;
47455;SDS011;33202;48.512;-2.780;2023-06-10T10:32:55;16.52;;;12.35;;
47455;SDS011;33202;48.512;-2.780;2023-06-10T10:35:23;20.38;;;14.57;;
47455;SDS011;33202;48.512;-2.780;2023-06-10T10:37:51;19.97;;;15.57;;
47455;SDS011;33202;48.512;-2.780;2023-06-10T10:40:17;22.95;;;14.90;;
47455;SDS011;33202;48.512;-2.780;2023-06-10T10:42:44;19.73;;;14.73;;
47455;SDS011;33202;48.512;-2.780;2023-06-10T10:45:10;19.67;;;14.80;;
47455;SDS011;33202;48.512;-2.780;2023-06-10T10:47:36;24.90;;;16.50;;
47455;SDS011;33202;48.512;-2.780;2023-06-10T10:50:12;22.55;;;15.18;;
47455;SDS011;33202;48.512;-2.780;2023-06-10T10:52:55;20.60;;;15.27;;
47455;SDS011;33202;48.512;-2.780;2023-06-10T10:55:22;21.45;;;15.70;;
47455;SDS011;33202;48.512;-2.780;2023-06-10T11:00:30;20.65;;;14.02;;
47455;SDS011;33202;48.512;-2.780;2023-06-10T11:03:04;16.77;;;13.30;;
47455;SDS011;33202;48.512;-2.780;2023-06-10T11:05:38;19.30;;;14.73;;
47455;SDS011;33202;48.512;-2.780;2023-06-10T11:08:07;17.73;;;14.40;;
47455;SDS011;33202;48.512;-2.780;2023-06-10T11:13:00;18.35;;;14.70;;
47455;SDS011;33202;48.512;-2.780;2023-06-10T11:15:27;21.83;;;16.30;;
47455;SDS011;33202;48.512;-2.780;2023-06-10T11:20:42;18.60;;;13.95;;
47455;SDS011;33202;48.512;-2.780;2023-06-10T11:23:08;21.77;;;15.48;;
47455;SDS011;33202;48.512;-2.780;2023-06-10T11:25:40;22.52;;;16.45;;
47455;SDS011;33202;48.512;-2.780;2023-06-10T11:28:17;17.65;;;14.25;;
47455;SDS011;33202;48.512;-2.780;2023-06-10T11:33:13;19.15;;;13.98;;
47455;SDS011;33202;48.512;-2.780;2023-06-10T11:35:40;18.10;;;13.98;;
47455;SDS011;33202;48.512;-2.780;2023-06-10T11:38:06;18.40;;;13.52;;
47455;SDS011;33202;48.512;-2.780;2023-06-10T11:40:32;20.13;;;14.65;;
47455;SDS011;33202;48.512;-2.780;2023-06-10T11:42:59;26.67;;;17.33;;
47455;SDS011;33202;48.512;-2.780;2023-06-10T11:45:25;22.10;;;16.13;;
47455;SDS011;33202;48.512;-2.780;2023-06-10T11:47:57;22.63;;;15.95;;
47455;SDS011;33202;48.512;-2.780;2023-06-10T11:50:42;23.90;;;15.70;;
47455;SDS011;33202;48.512;-2.780;2023-06-10T11:53:08;23.08;;;17.02;;
47455;SDS011;33202;48.512;-2.780;2023-06-10T11:58:12;24.13;;;16.75;;
47455;SDS011;33202;48.512;-2.780;2023-06-10T12:00:44;23.10;;;16.77;;
47455;SDS011;33202;48.512;-2.780;2023-06-10T12:03:11;22.55;;;16.17;;
47455;SDS011;33202;48.512;-2.780;2023-06-10T12:05:37;23.63;;;16.52;;
47455;SDS011;33202;48.512;-2.780;2023-06-10T12:08:09;20.55;;;14.90;;
47455;SDS011;33202;48.512;-2.780;2023-06-10T12:10:41;24.63;;;15.38;;
47455;SDS011;33202;48.512;-2.780;2023-06-10T12:13:11;21.60;;;13.52;;
47455;SDS011;33202;48.512;-2.780;2023-06-10T12:15:37;19.60;;;14.15;;
47455;SDS011;33202;48.512;-2.780;2023-06-10T12:18:03;20.50;;;14.55;;
47455;SDS011;33202;48.512;-2.780;2023-06-10T12:20:30;21.30;;;14.68;;
47455;SDS011;33202;48.512;-2.780;2023-06-10T12:22:58;19.55;;;13.75;;
47455;SDS011;33202;48.512;-2.780;2023-06-10T12:25:25;19.73;;;12.85;;
47455;SDS011;33202;48.512;-2.780;2023-06-10T12:27:52;17.42;;;12.70;;
47455;SDS011;33202;48.512;-2.780;2023-06-10T12:30:22;18.35;;;13.32;;
47455;SDS011;33202;48.512;-2.780;2023-06-10T12:32:49;19.45;;;13.00;;
47455;SDS011;33202;48.512;-2.780;2023-06-10T12:35:18;17.60;;;13.13;;
47455;SDS011;33202;48.512;-2.780;2023-06-10T12:38:03;18.52;;;12.10;;
47455;SDS011;33202;48.512;-2.780;2023-06-10T12:40:32;17.65;;;12.18;;
47455;SDS011;33202;48.512;-2.780;2023-06-10T12:42:58;15.05;;;10.85;;
47455;SDS011;33202;48.512;-2.780;2023-06-10T12:45:31;16.40;;;11.20;;
47455;SDS011;33202;48.512;-2.780;2023-06-10T12:48:31;14.05;;;11.27;;
47455;SDS011;33202;48.512;-2.780;2023-06-10T12:50:57;17.30;;;11.38;;
47455;SDS011;33202;48.512;-2.780;2023-06-10T12:53:23;15.38;;;10.35;;
47455;SDS011;33202;48.512;-2.780;2023-06-10T12:55:51;15.57;;;10.50;;
47455;SDS011;33202;48.512;-2.780;2023-06-10T12:58:18;13.43;;;9.90;;
47455;SDS011;33202;48.512;-2.780;2023-06-10T13:00:45;14.60;;;10.48;;
47455;SDS011;33202;48.512;-2.780;2023-06-10T13:03:11;14.27;;;10.25;;
47455;SDS011;33202;48.512;-2.780;2023-06-10T13:05:37;13.75;;;9.75;;
47455;SDS011;33202;48.512;-2.780;2023-06-10T13:08:04;13.85;;;9.82;;
47455;SDS011;33202;48.512;-2.780;2023-06-10T13:10:32;14.07;;;9.77;;
47455;SDS011;33202;48.512;-2.780;2023-06-10T13:12:58;13.20;;;9.25;;
47455;SDS011;33202;48.512;-2.780;2023-06-10T13:15:24;16.90;;;10.05;;
47455;SDS011;33202;48.512;-2.780;2023-06-10T13:17:51;14.68;;;8.70;;
47455;SDS011;33202;48.512;-2.780;2023-06-10T13:20:18;14.13;;;10.20;;
47455;SDS011;33202;48.512;-2.780;2023-06-10T13:22:44;11.75;;;8.77;;
47455;SDS011;33202;48.512;-2.780;2023-06-10T13:25:10;11.82;;;9.15;;
47455;SDS011;33202;48.512;-2.780;2023-06-10T13:27:36;11.20;;;8.00;;
47455;SDS011;33202;48.512;-2.780;2023-06-10T13:30:07;9.68;;;7.97;;
47455;SDS011;33202;48.512;-2.780;2023-06-10T13:32:33;10.73;;;7.80;;
47455;SDS011;33202;48.512;-2.780;2023-06-10T13:34:59;12.25;;;7.90;;
47455;SDS011;33202;48.512;-2.780;2023-06-10T13:37:26;12.77;;;7.65;;
47455;SDS011;33202;48.512;-2.780;2023-06-10T13:39:52;10.57;;;6.93;;
47455;SDS011;33202;48.512;-2.780;2023-06-10T13:42:18;8.50;;;6.53;;
47455;SDS011;33202;48.512;-2.780;2023-06-10T13:44:45;10.50;;;6.35;;
47455;SDS011;33202;48.512;-2.780;2023-06-10T13:49:38;9.90;;;6.53;;
47455;SDS011;33202;48.512;-2.780;2023-06-10T13:52:05;10.35;;;6.35;;
47455;SDS011;33202;48.512;-2.780;2023-06-10T13:54:31;8.35;;;6.03;;
47455;SDS011;33202;48.512;-2.780;2023-06-10T13:56:57;9.98;;;6.10;;
47455;SDS011;33202;48.512;-2.780;2023-06-10T13:59:25;9.38;;;5.53;;
47455;SDS011;33202;48.512;-2.780;2023-06-10T14:01:51;8.57;;;5.78;;
47455;SDS011;33202;48.512;-2.780;2023-06-10T14:04:17;7.80;;;5.50;;
47455;SDS011;33202;48.512;-2.780;2023-06-10T14:06:43;8.90;;;5.75;;
47455;SDS011;33202;48.512;-2.780;2023-06-10T14:09:09;9.52;;;5.85;;
47455;SDS011;33202;48.512;-2.780;2023-06-10T14:11:35;7.40;;;5.73;;
47455;SDS011;33202;48.512;-2.780;2023-06-10T14:14:01;7.65;;;5.78;;
47455;SDS011;33202;48.512;-2.780;2023-06-10T14:16:27;30.15;;;8.30;;
47455;SDS011;33202;48.512;-2.780;2023-06-10T14:18:53;11.20;;;6.30;;
47455;SDS011;33202;48.512;-2.780;2023-06-10T14:21:20;7.85;;;5.60;;
47455;SDS011;33202;48.512;-2.780;2023-06-10T14:23:46;11.85;;;5.47;;
47455;SDS011;33202;48.512;-2.780;2023-06-10T14:26:14;8.93;;;5.35;;
47455;SDS011;33202;48.512;-2.780;2023-06-10T14:28:40;9.43;;;6.13;;
47455;SDS011;33202;48.512;-2.780;2023-06-10T14:31:06;8.43;;;5.68;;
47455;SDS011;33202;48.512;-2.780;2023-06-10T14:33:32;9.88;;;5.63;;
47455;SDS011;33202;48.512;-2.780;2023-06-10T14:35:59;8.95;;;5.82;;
47455;SDS011;33202;48.512;-2.780;2023-06-10T14:38:25;8.60;;;5.47;;
47455;SDS011;33202;48.512;-2.780;2023-06-10T14:40:51;7.78;;;5.07;;
47455;SDS011;33202;48.512;-2.780;2023-06-10T14:45:43;8.15;;;5.70;;